sensor_id;sensor_type;location;lat;lon;timestamp;temperature;humidity
3478;DHT22;37937;61.490;23.506;2023-05-07T00:01:10;-0.20;19.30
3478;DHT22;37937;61.490;23.506;2023-05-07T00:03:36;-0.20;19.90
3478;DHT22;37937;61.490;23.506;2023-05-07T00:06:03;-0.20;20.50
3478;DHT22;37937;61.490;23.506;2023-05-07T00:08:28;-0.30;20.60
3478;DHT22;37937;61.490;23.506;2023-05-07T00:10:54;-0.30;20.90
3478;DHT22;37937;61.490;23.506;2023-05-07T00:13:20;-0.30;21.00
3478;DHT22;37937;61.490;23.506;2023-05-07T00:15:45;-0.30;21.10
3478;DHT22;37937;61.490;23.506;2023-05-07T00:18:11;-0.30;21.00
3478;DHT22;37937;61.490;23.506;2023-05-07T00:20:37;-0.30;21.20
3478;DHT22;37937;61.490;23.506;2023-05-07T00:23:02;-0.30;21.70
3478;DHT22;37937;61.490;23.506;2023-05-07T00:25:28;-0.30;21.60
3478;DHT22;37937;61.490;23.506;2023-05-07T00:27:54;-0.40;22.20
3478;DHT22;37937;61.490;23.506;2023-05-07T00:30:19;-0.50;22.80
3478;DHT22;37937;61.490;23.506;2023-05-07T00:32:45;-0.50;23.70
3478;DHT22;37937;61.490;23.506;2023-05-07T00:35:11;-0.60;24.00
3478;DHT22;37937;61.490;23.506;2023-05-07T00:37:37;-0.50;24.00
3478;DHT22;37937;61.490;23.506;2023-05-07T00:40:02;-0.50;24.00
3478;DHT22;37937;61.490;23.506;2023-05-07T00:42:30;-0.50;23.90
3478;DHT22;37937;61.490;23.506;2023-05-07T00:44:57;-0.50;24.10
3478;DHT22;37937;61.490;23.506;2023-05-07T00:47:23;-0.40;23.80
3478;DHT22;37937;61.490;23.506;2023-05-07T00:49:50;-0.40;23.90
3478;DHT22;37937;61.490;23.506;2023-05-07T00:52:16;-0.40;24.00
3478;DHT22;37937;61.490;23.506;2023-05-07T00:54:42;-0.50;24.10
3478;DHT22;37937;61.490;23.506;2023-05-07T00:57:11;-0.60;24.50
3478;DHT22;37937;61.490;23.506;2023-05-07T00:59:37;-0.60;24.90
3478;DHT22;37937;61.490;23.506;2023-05-07T01:02:03;-0.60;25.40
3478;DHT22;37937;61.490;23.506;2023-05-07T01:04:29;-0.60;25.80
3478;DHT22;37937;61.490;23.506;2023-05-07T01:06:55;-0.70;25.90
3478;DHT22;37937;61.490;23.506;2023-05-07T01:09:21;-0.80;27.60
3478;DHT22;37937;61.490;23.506;2023-05-07T01:11:48;-0.80;28.40
3478;DHT22;37937;61.490;23.506;2023-05-07T01:14:14;-0.70;27.80
3478;DHT22;37937;61.490;23.506;2023-05-07T01:16:40;-0.60;25.50
3478;DHT22;37937;61.490;23.506;2023-05-07T01:19:07;-0.50;23.60
3478;DHT22;37937;61.490;23.506;2023-05-07T01:21:33;-0.40;23.20
3478;DHT22;37937;61.490;23.506;2023-05-07T01:24:02;-0.30;22.90
3478;DHT22;37937;61.490;23.506;2023-05-07T01:26:28;-0.50;23.80
3478;DHT22;37937;61.490;23.506;2023-05-07T01:28:53;-0.70;25.90
3478;DHT22;37937;61.490;23.506;2023-05-07T01:31:19;-0.80;27.10
3478;DHT22;37937;61.490;23.506;2023-05-07T01:33:45;-0.80;27.60
3478;DHT22;37937;61.490;23.506;2023-05-07T01:36:11;-0.90;28.60
3478;DHT22;37937;61.490;23.506;2023-05-07T01:38:37;-0.90;28.90
3478;DHT22;37937;61.490;23.506;2023-05-07T01:41:03;-0.90;29.40
3478;DHT22;37937;61.490;23.506;2023-05-07T01:43:29;-0.80;29.00
3478;DHT22;37937;61.490;23.506;2023-05-07T01:45:55;-0.80;28.20
3478;DHT22;37937;61.490;23.506;2023-05-07T01:48:21;-0.80;28.40
3478;DHT22;37937;61.490;23.506;2023-05-07T01:50:47;-0.80;28.50
3478;DHT22;37937;61.490;23.506;2023-05-07T01:53:13;-0.70;27.30
3478;DHT22;37937;61.490;23.506;2023-05-07T01:55:38;-0.70;27.30
3478;DHT22;37937;61.490;23.506;2023-05-07T01:58:05;-0.70;28.20
3478;DHT22;37937;61.490;23.506;2023-05-07T02:00:31;-0.80;28.50
3478;DHT22;37937;61.490;23.506;2023-05-07T02:02:57;-0.80;29.00
3478;DHT22;37937;61.490;23.506;2023-05-07T02:05:23;-0.90;31.20
3478;DHT22;37937;61.490;23.506;2023-05-07T02:07:49;-0.90;31.80
3478;DHT22;37937;61.490;23.506;2023-05-07T02:10:14;-0.70;28.70
3478;DHT22;37937;61.490;23.506;2023-05-07T02:12:40;-0.80;29.90
3478;DHT22;37937;61.490;23.506;2023-05-07T02:15:06;-0.80;29.90
3478;DHT22;37937;61.490;23.506;2023-05-07T02:17:31;-0.70;30.00
3478;DHT22;37937;61.490;23.506;2023-05-07T02:19:58;-0.70;28.80
3478;DHT22;37937;61.490;23.506;2023-05-07T02:22:25;-0.60;28.60
3478;DHT22;37937;61.490;23.506;2023-05-07T02:24:51;-0.60;28.00
3478;DHT22;37937;61.490;23.506;2023-05-07T02:27:16;-0.50;25.70
3478;DHT22;37937;61.490;23.506;2023-05-07T02:29:42;-0.40;25.00
3478;DHT22;37937;61.490;23.506;2023-05-07T02:32:07;-0.40;25.80
3478;DHT22;37937;61.490;23.506;2023-05-07T02:34:33;-0.50;26.50
3478;DHT22;37937;61.490;23.506;2023-05-07T02:36:59;-0.40;26.10
3478;DHT22;37937;61.490;23.506;2023-05-07T02:39:24;-0.40;27.20
3478;DHT22;37937;61.490;23.506;2023-05-07T02:41:50;-0.50;28.40
3478;DHT22;37937;61.490;23.506;2023-05-07T02:44:16;-0.50;30.00
3478;DHT22;37937;61.490;23.506;2023-05-07T02:46:41;-0.50;30.40
3478;DHT22;37937;61.490;23.506;2023-05-07T02:49:07;-0.40;28.50
3478;DHT22;37937;61.490;23.506;2023-05-07T02:51:33;-0.50;32.60
3478;DHT22;37937;61.490;23.506;2023-05-07T02:53:58;-0.50;29.50
3478;DHT22;37937;61.490;23.506;2023-05-07T02:56:26;-0.40;28.20
3478;DHT22;37937;61.490;23.506;2023-05-07T02:58:52;-0.30;28.50
3478;DHT22;37937;61.490;23.506;2023-05-07T03:01:17;-0.30;29.40
3478;DHT22;37937;61.490;23.506;2023-05-07T03:03:43;-0.30;29.80
3478;DHT22;37937;61.490;23.506;2023-05-07T03:06:09;-0.20;28.10
3478;DHT22;37937;61.490;23.506;2023-05-07T03:08:35;-0.10;25.30
3478;DHT22;37937;61.490;23.506;2023-05-07T03:11:01;0.10;23.50
3478;DHT22;37937;61.490;23.506;2023-05-07T03:13:27;0.10;23.70
3478;DHT22;37937;61.490;23.506;2023-05-07T03:15:53;0.10;23.60
3478;DHT22;37937;61.490;23.506;2023-05-07T03:18:18;0.20;27.10
3478;DHT22;37937;61.490;23.506;2023-05-07T03:20:44;0.20;29.60
3478;DHT22;37937;61.490;23.506;2023-05-07T03:23:10;0.20;28.00
3478;DHT22;37937;61.490;23.506;2023-05-07T03:25:35;0.20;31.20
3478;DHT22;37937;61.490;23.506;2023-05-07T03:28:01;0.20;33.30
3478;DHT22;37937;61.490;23.506;2023-05-07T03:30:27;0.20;34.80
3478;DHT22;37937;61.490;23.506;2023-05-07T03:32:52;0.30;30.30
3478;DHT22;37937;61.490;23.506;2023-05-07T03:35:18;0.40;35.20
3478;DHT22;37937;61.490;23.506;2023-05-07T03:37:44;0.40;35.10
3478;DHT22;37937;61.490;23.506;2023-05-07T03:40:09;0.50;34.10
3478;DHT22;37937;61.490;23.506;2023-05-07T03:42:35;0.60;36.20
3478;DHT22;37937;61.490;23.506;2023-05-07T03:45:01;0.70;39.90
3478;DHT22;37937;61.490;23.506;2023-05-07T03:47:27;0.90;45.00
3478;DHT22;37937;61.490;23.506;2023-05-07T03:49:52;0.90;46.40
3478;DHT22;37937;61.490;23.506;2023-05-07T03:52:19;1.20;41.10
3478;DHT22;37937;61.490;23.506;2023-05-07T03:54:49;1.40;40.10
3478;DHT22;37937;61.490;23.506;2023-05-07T03:57:14;1.70;36.40
3478;DHT22;37937;61.490;23.506;2023-05-07T03:59:40;1.90;36.10
3478;DHT22;37937;61.490;23.506;2023-05-07T04:02:06;2.20;33.30
3478;DHT22;37937;61.490;23.506;2023-05-07T04:04:31;2.50;32.50
3478;DHT22;37937;61.490;23.506;2023-05-07T04:06:58;2.90;29.80
3478;DHT22;37937;61.490;23.506;2023-05-07T04:09:24;3.30;26.60
3478;DHT22;37937;61.490;23.506;2023-05-07T04:11:50;4.00;25.40
3478;DHT22;37937;61.490;23.506;2023-05-07T04:14:16;4.40;20.20
3478;DHT22;37937;61.490;23.506;2023-05-07T04:16:41;5.20;16.00
3478;DHT22;37937;61.490;23.506;2023-05-07T04:19:07;5.70;11.70
3478;DHT22;37937;61.490;23.506;2023-05-07T04:21:33;5.90;9.80
3478;DHT22;37937;61.490;23.506;2023-05-07T04:23:58;6.10;8.80
3478;DHT22;37937;61.490;23.506;2023-05-07T04:26:24;6.60;9.50
3478;DHT22;37937;61.490;23.506;2023-05-07T04:28:50;7.20;5.50
3478;DHT22;37937;61.490;23.506;2023-05-07T04:31:16;7.10;1.50
3478;DHT22;37937;61.490;23.506;2023-05-07T04:33:41;7.00;1.00
3478;DHT22;37937;61.490;23.506;2023-05-07T04:36:07;7.50;1.40
3478;DHT22;37937;61.490;23.506;2023-05-07T04:38:33;8.40;1.00
3478;DHT22;37937;61.490;23.506;2023-05-07T04:41:02;8.50;1.00
3478;DHT22;37937;61.490;23.506;2023-05-07T04:43:28;8.80;1.00
3478;DHT22;37937;61.490;23.506;2023-05-07T04:45:54;8.60;1.00
3478;DHT22;37937;61.490;23.506;2023-05-07T04:48:19;8.40;1.00
3478;DHT22;37937;61.490;23.506;2023-05-07T04:50:49;9.10;1.00
3478;DHT22;37937;61.490;23.506;2023-05-07T04:53:14;9.40;1.00
3478;DHT22;37937;61.490;23.506;2023-05-07T04:55:40;9.40;1.00
3478;DHT22;37937;61.490;23.506;2023-05-07T04:58:06;9.60;1.00
3478;DHT22;37937;61.490;23.506;2023-05-07T05:00:31;10.00;1.00
3478;DHT22;37937;61.490;23.506;2023-05-07T05:02:57;10.30;1.00
3478;DHT22;37937;61.490;23.506;2023-05-07T05:05:22;10.20;1.00
3478;DHT22;37937;61.490;23.506;2023-05-07T05:07:48;10.70;1.00
3478;DHT22;37937;61.490;23.506;2023-05-07T05:10:14;10.90;1.00
3478;DHT22;37937;61.490;23.506;2023-05-07T05:12:39;10.00;1.00
3478;DHT22;37937;61.490;23.506;2023-05-07T05:15:05;10.70;1.00
3478;DHT22;37937;61.490;23.506;2023-05-07T05:17:31;10.30;1.00
3478;DHT22;37937;61.490;23.506;2023-05-07T05:19:57;10.70;1.00
3478;DHT22;37937;61.490;23.506;2023-05-07T05:22:22;10.90;1.00
3478;DHT22;37937;61.490;23.506;2023-05-07T05:24:48;11.40;1.00
3478;DHT22;37937;61.490;23.506;2023-05-07T05:27:13;11.30;1.00
3478;DHT22;37937;61.490;23.506;2023-05-07T05:29:39;10.90;1.00
3478;DHT22;37937;61.490;23.506;2023-05-07T05:32:05;10.80;1.00
3478;DHT22;37937;61.490;23.506;2023-05-07T05:34:30;11.10;1.00
3478;DHT22;37937;61.490;23.506;2023-05-07T05:36:58;10.40;1.00
3478;DHT22;37937;61.490;23.506;2023-05-07T05:39:24;10.00;1.00
3478;DHT22;37937;61.490;23.506;2023-05-07T05:41:50;10.80;1.00
3478;DHT22;37937;61.490;23.506;2023-05-07T05:44:15;10.50;1.00
3478;DHT22;37937;61.490;23.506;2023-05-07T05:46:41;10.50;1.00
3478;DHT22;37937;61.490;23.506;2023-05-07T05:49:06;10.70;1.00
3478;DHT22;37937;61.490;23.506;2023-05-07T05:51:32;11.00;1.00
3478;DHT22;37937;61.490;23.506;2023-05-07T05:53:58;10.80;1.00
3478;DHT22;37937;61.490;23.506;2023-05-07T05:56:23;10.60;1.00
3478;DHT22;37937;61.490;23.506;2023-05-07T05:58:49;10.00;1.00
3478;DHT22;37937;61.490;23.506;2023-05-07T06:01:15;10.70;1.00
3478;DHT22;37937;61.490;23.506;2023-05-07T06:03:40;10.10;1.00
3478;DHT22;37937;61.490;23.506;2023-05-07T06:06:06;10.00;1.00
3478;DHT22;37937;61.490;23.506;2023-05-07T06:08:31;9.70;1.00
3478;DHT22;37937;61.490;23.506;2023-05-07T06:10:57;10.70;1.00
3478;DHT22;37937;61.490;23.506;2023-05-07T06:13:23;11.50;1.00
3478;DHT22;37937;61.490;23.506;2023-05-07T06:15:49;12.70;1.00
3478;DHT22;37937;61.490;23.506;2023-05-07T06:18:15;13.20;1.00
3478;DHT22;37937;61.490;23.506;2023-05-07T06:20:40;13.20;1.00
3478;DHT22;37937;61.490;23.506;2023-05-07T06:23:06;13.60;1.00
3478;DHT22;37937;61.490;23.506;2023-05-07T06:25:32;13.70;1.00
3478;DHT22;37937;61.490;23.506;2023-05-07T06:27:57;13.40;1.00
3478;DHT22;37937;61.490;23.506;2023-05-07T06:30:23;13.40;1.00
3478;DHT22;37937;61.490;23.506;2023-05-07T06:32:49;13.40;1.00
3478;DHT22;37937;61.490;23.506;2023-05-07T06:35:14;13.80;1.00
3478;DHT22;37937;61.490;23.506;2023-05-07T06:37:41;13.70;1.00
3478;DHT22;37937;61.490;23.506;2023-05-07T06:40:08;13.80;1.00
3478;DHT22;37937;61.490;23.506;2023-05-07T06:42:35;13.80;1.00
3478;DHT22;37937;61.490;23.506;2023-05-07T06:45:00;14.20;1.00
3478;DHT22;37937;61.490;23.506;2023-05-07T06:47:26;14.50;1.00
3478;DHT22;37937;61.490;23.506;2023-05-07T06:49:51;13.30;1.00
3478;DHT22;37937;61.490;23.506;2023-05-07T06:52:17;12.90;1.00
3478;DHT22;37937;61.490;23.506;2023-05-07T06:54:43;12.70;1.00
3478;DHT22;37937;61.490;23.506;2023-05-07T06:57:08;13.30;1.00
3478;DHT22;37937;61.490;23.506;2023-05-07T06:59:34;14.00;1.00
3478;DHT22;37937;61.490;23.506;2023-05-07T07:02:00;14.80;1.00
3478;DHT22;37937;61.490;23.506;2023-05-07T07:04:25;14.60;1.00
3478;DHT22;37937;61.490;23.506;2023-05-07T07:06:51;13.90;1.00
3478;DHT22;37937;61.490;23.506;2023-05-07T07:09:17;13.60;1.00
3478;DHT22;37937;61.490;23.506;2023-05-07T07:11:42;12.30;1.00
3478;DHT22;37937;61.490;23.506;2023-05-07T07:14:08;12.90;1.00
3478;DHT22;37937;61.490;23.506;2023-05-07T07:16:34;12.40;1.00
3478;DHT22;37937;61.490;23.506;2023-05-07T07:18:59;13.20;1.00
3478;DHT22;37937;61.490;23.506;2023-05-07T07:21:25;12.70;1.00
3478;DHT22;37937;61.490;23.506;2023-05-07T07:23:51;12.50;1.00
3478;DHT22;37937;61.490;23.506;2023-05-07T07:26:17;13.40;1.00
3478;DHT22;37937;61.490;23.506;2023-05-07T07:28:43;14.10;1.00
3478;DHT22;37937;61.490;23.506;2023-05-07T07:31:09;13.50;1.00
3478;DHT22;37937;61.490;23.506;2023-05-07T07:33:35;12.70;1.00
3478;DHT22;37937;61.490;23.506;2023-05-07T07:36:00;13.60;1.00
3478;DHT22;37937;61.490;23.506;2023-05-07T07:38:26;13.90;1.00
3478;DHT22;37937;61.490;23.506;2023-05-07T07:40:51;13.10;1.00
3478;DHT22;37937;61.490;23.506;2023-05-07T07:43:17;13.00;1.00
3478;DHT22;37937;61.490;23.506;2023-05-07T07:45:43;13.10;1.00
3478;DHT22;37937;61.490;23.506;2023-05-07T07:48:09;13.60;1.00
3478;DHT22;37937;61.490;23.506;2023-05-07T07:50:34;14.20;1.00
3478;DHT22;37937;61.490;23.506;2023-05-07T07:53:01;13.30;1.00
3478;DHT22;37937;61.490;23.506;2023-05-07T07:55:26;12.50;1.00
3478;DHT22;37937;61.490;23.506;2023-05-07T07:57:52;12.70;1.00
3478;DHT22;37937;61.490;23.506;2023-05-07T08:00:18;13.60;1.00
3478;DHT22;37937;61.490;23.506;2023-05-07T08:02:43;13.40;1.00
3478;DHT22;37937;61.490;23.506;2023-05-07T08:05:09;14.20;1.00
3478;DHT22;37937;61.490;23.506;2023-05-07T08:07:35;14.30;1.00
3478;DHT22;37937;61.490;23.506;2023-05-07T08:10:01;14.20;1.00
3478;DHT22;37937;61.490;23.506;2023-05-07T08:12:27;14.40;1.00
3478;DHT22;37937;61.490;23.506;2023-05-07T08:14:53;13.80;1.00
3478;DHT22;37937;61.490;23.506;2023-05-07T08:17:18;13.90;1.00
3478;DHT22;37937;61.490;23.506;2023-05-07T08:19:44;13.70;1.00
3478;DHT22;37937;61.490;23.506;2023-05-07T08:22:10;14.60;1.00
3478;DHT22;37937;61.490;23.506;2023-05-07T08:24:36;15.00;1.00
3478;DHT22;37937;61.490;23.506;2023-05-07T08:27:01;15.20;1.00
3478;DHT22;37937;61.490;23.506;2023-05-07T08:29:27;15.80;1.00
3478;DHT22;37937;61.490;23.506;2023-05-07T08:31:53;15.60;1.00
3478;DHT22;37937;61.490;23.506;2023-05-07T08:34:19;15.90;1.00
3478;DHT22;37937;61.490;23.506;2023-05-07T08:36:44;15.70;1.00
3478;DHT22;37937;61.490;23.506;2023-05-07T08:39:12;16.30;1.00
3478;DHT22;37937;61.490;23.506;2023-05-07T08:41:38;16.40;1.00
3478;DHT22;37937;61.490;23.506;2023-05-07T08:44:03;15.90;1.00
3478;DHT22;37937;61.490;23.506;2023-05-07T08:46:31;16.40;1.00
3478;DHT22;37937;61.490;23.506;2023-05-07T08:48:57;16.50;1.00
3478;DHT22;37937;61.490;23.506;2023-05-07T08:51:23;16.80;1.00
3478;DHT22;37937;61.490;23.506;2023-05-07T08:53:49;16.50;1.00
3478;DHT22;37937;61.490;23.506;2023-05-07T08:56:15;16.70;1.00
3478;DHT22;37937;61.490;23.506;2023-05-07T08:58:44;16.70;1.00
3478;DHT22;37937;61.490;23.506;2023-05-07T09:01:14;16.60;1.00
3478;DHT22;37937;61.490;23.506;2023-05-07T09:03:40;16.60;1.00
3478;DHT22;37937;61.490;23.506;2023-05-07T09:06:05;16.80;1.00
3478;DHT22;37937;61.490;23.506;2023-05-07T09:08:34;16.80;1.00
3478;DHT22;37937;61.490;23.506;2023-05-07T09:11:01;16.60;1.00
3478;DHT22;37937;61.490;23.506;2023-05-07T09:13:27;17.10;1.00
3478;DHT22;37937;61.490;23.506;2023-05-07T09:15:52;16.80;1.00
3478;DHT22;37937;61.490;23.506;2023-05-07T09:18:18;16.40;1.00
3478;DHT22;37937;61.490;23.506;2023-05-07T09:20:44;16.50;1.00
3478;DHT22;37937;61.490;23.506;2023-05-07T09:23:09;16.50;1.00
3478;DHT22;37937;61.490;23.506;2023-05-07T09:25:35;16.40;1.00
3478;DHT22;37937;61.490;23.506;2023-05-07T09:28:02;16.90;1.00
3478;DHT22;37937;61.490;23.506;2023-05-07T09:30:28;17.20;1.00
3478;DHT22;37937;61.490;23.506;2023-05-07T09:32:54;17.10;1.00
3478;DHT22;37937;61.490;23.506;2023-05-07T09:35:20;17.20;1.00
3478;DHT22;37937;61.490;23.506;2023-05-07T09:38:01;17.70;1.00
3478;DHT22;37937;61.490;23.506;2023-05-07T09:40:29;17.50;1.00
3478;DHT22;37937;61.490;23.506;2023-05-07T09:42:55;17.80;1.00
3478;DHT22;37937;61.490;23.506;2023-05-07T09:45:27;17.40;1.00
3478;DHT22;37937;61.490;23.506;2023-05-07T09:47:54;17.20;1.00
3478;DHT22;37937;61.490;23.506;2023-05-07T09:50:19;17.30;1.00
3478;DHT22;37937;61.490;23.506;2023-05-07T09:52:47;17.50;1.00
3478;DHT22;37937;61.490;23.506;2023-05-07T09:55:12;17.10;1.00
3478;DHT22;37937;61.490;23.506;2023-05-07T09:57:39;17.50;1.00
3478;DHT22;37937;61.490;23.506;2023-05-07T10:00:05;16.90;1.00
3478;DHT22;37937;61.490;23.506;2023-05-07T10:02:31;17.40;1.00
3478;DHT22;37937;61.490;23.506;2023-05-07T10:04:58;17.10;1.00
3478;DHT22;37937;61.490;23.506;2023-05-07T10:07:25;17.60;1.00
3478;DHT22;37937;61.490;23.506;2023-05-07T10:09:51;17.70;1.00
3478;DHT22;37937;61.490;23.506;2023-05-07T10:12:17;17.90;1.00
3478;DHT22;37937;61.490;23.506;2023-05-07T10:14:44;18.40;1.00
3478;DHT22;37937;61.490;23.506;2023-05-07T10:17:11;17.30;1.00
3478;DHT22;37937;61.490;23.506;2023-05-07T10:19:37;17.40;1.00
3478;DHT22;37937;61.490;23.506;2023-05-07T10:22:04;17.20;1.00
3478;DHT22;37937;61.490;23.506;2023-05-07T10:24:33;17.40;1.00
3478;DHT22;37937;61.490;23.506;2023-05-07T10:27:03;17.50;1.00
3478;DHT22;37937;61.490;23.506;2023-05-07T10:29:33;17.80;1.00
3478;DHT22;37937;61.490;23.506;2023-05-07T10:34:28;17.50;1.00
3478;DHT22;37937;61.490;23.506;2023-05-07T10:36:55;17.50;1.00
3478;DHT22;37937;61.490;23.506;2023-05-07T10:39:21;17.30;1.00
3478;DHT22;37937;61.490;23.506;2023-05-07T10:41:47;17.00;1.00
3478;DHT22;37937;61.490;23.506;2023-05-07T10:44:26;17.60;1.00
3478;DHT22;37937;61.490;23.506;2023-05-07T10:49:30;16.90;1.00
3478;DHT22;37937;61.490;23.506;2023-05-07T10:52:11;16.30;1.00
3478;DHT22;37937;61.490;23.506;2023-05-07T10:54:37;17.10;1.00
3478;DHT22;37937;61.490;23.506;2023-05-07T10:59:48;17.50;1.00
3478;DHT22;37937;61.490;23.506;2023-05-07T11:02:14;17.40;1.00
3478;DHT22;37937;61.490;23.506;2023-05-07T11:04:40;17.90;1.00
3478;DHT22;37937;61.490;23.506;2023-05-07T11:13:02;17.70;1.00
3478;DHT22;37937;61.490;23.506;2023-05-07T11:15:07;17.30;1.00
3478;DHT22;37937;61.490;23.506;2023-05-07T11:17:33;17.70;1.00
3478;DHT22;37937;61.490;23.506;2023-05-07T11:20:02;17.20;1.00
3478;DHT22;37937;61.490;23.506;2023-05-07T11:25:02;17.80;1.00
3478;DHT22;37937;61.490;23.506;2023-05-07T11:27:27;18.10;1.00
3478;DHT22;37937;61.490;23.506;2023-05-07T11:29:53;17.60;1.00
3478;DHT22;37937;61.490;23.506;2023-05-07T11:32:22;16.60;1.00
3478;DHT22;37937;61.490;23.506;2023-05-07T11:34:52;17.90;1.00
3478;DHT22;37937;61.490;23.506;2023-05-07T11:37:18;17.50;1.00
3478;DHT22;37937;61.490;23.506;2023-05-07T11:39:44;17.30;1.00
3478;DHT22;37937;61.490;23.506;2023-05-07T11:42:32;16.80;1.00
3478;DHT22;37937;61.490;23.506;2023-05-07T11:44:58;17.30;1.00
3478;DHT22;37937;61.490;23.506;2023-05-07T11:47:24;17.50;1.00
3478;DHT22;37937;61.490;23.506;2023-05-07T11:49:51;17.00;1.00
3478;DHT22;37937;61.490;23.506;2023-05-07T11:52:17;16.50;1.00
3478;DHT22;37937;61.490;23.506;2023-05-07T11:54:50;17.00;1.00
3478;DHT22;37937;61.490;23.506;2023-05-07T11:57:16;17.40;1.00
3478;DHT22;37937;61.490;23.506;2023-05-07T11:59:41;17.90;1.00
3478;DHT22;37937;61.490;23.506;2023-05-07T12:02:09;17.30;1.00
3478;DHT22;37937;61.490;23.506;2023-05-07T12:04:35;17.80;1.00
3478;DHT22;37937;61.490;23.506;2023-05-07T12:07:01;17.60;1.00
3478;DHT22;37937;61.490;23.506;2023-05-07T12:09:27;17.10;1.00
3478;DHT22;37937;61.490;23.506;2023-05-07T12:11:53;17.50;1.00
3478;DHT22;37937;61.490;23.506;2023-05-07T12:14:19;17.40;1.00
3478;DHT22;37937;61.490;23.506;2023-05-07T12:16:45;17.60;1.00
3478;DHT22;37937;61.490;23.506;2023-05-07T12:19:11;17.50;1.00
3478;DHT22;37937;61.490;23.506;2023-05-07T12:21:40;17.10;1.00
3478;DHT22;37937;61.490;23.506;2023-05-07T12:24:06;17.30;1.00
3478;DHT22;37937;61.490;23.506;2023-05-07T12:26:31;17.60;1.00
3478;DHT22;37937;61.490;23.506;2023-05-07T12:28:57;17.50;1.00
3478;DHT22;37937;61.490;23.506;2023-05-07T12:31:25;17.80;1.00
3478;DHT22;37937;61.490;23.506;2023-05-07T12:33:51;17.50;1.00
3478;DHT22;37937;61.490;23.506;2023-05-07T12:36:16;17.90;1.00
3478;DHT22;37937;61.490;23.506;2023-05-07T12:38:42;17.50;1.00
3478;DHT22;37937;61.490;23.506;2023-05-07T12:41:09;17.00;1.00
3478;DHT22;37937;61.490;23.506;2023-05-07T12:43:35;16.60;1.00
3478;DHT22;37937;61.490;23.506;2023-05-07T12:46:06;16.50;1.00
3478;DHT22;37937;61.490;23.506;2023-05-07T12:48:32;16.20;1.00
3478;DHT22;37937;61.490;23.506;2023-05-07T12:50:59;16.10;1.00
3478;DHT22;37937;61.490;23.506;2023-05-07T12:53:25;16.30;1.00
3478;DHT22;37937;61.490;23.506;2023-05-07T12:55:54;16.90;1.00
3478;DHT22;37937;61.490;23.506;2023-05-07T12:58:27;17.00;1.00
3478;DHT22;37937;61.490;23.506;2023-05-07T13:00:53;16.60;1.00
3478;DHT22;37937;61.490;23.506;2023-05-07T13:05:49;16.30;1.00
3478;DHT22;37937;61.490;23.506;2023-05-07T13:08:23;16.60;1.00
3478;DHT22;37937;61.490;23.506;2023-05-07T13:10:49;16.90;1.00
3478;DHT22;37937;61.490;23.506;2023-05-07T13:13:14;16.50;1.00
3478;DHT22;37937;61.490;23.506;2023-05-07T13:15:40;16.40;1.00
3478;DHT22;37937;61.490;23.506;2023-05-07T13:18:06;16.40;1.00
3478;DHT22;37937;61.490;23.506;2023-05-07T13:20:32;16.30;1.00
3478;DHT22;37937;61.490;23.506;2023-05-07T13:22:57;15.60;1.00
3478;DHT22;37937;61.490;23.506;2023-05-07T13:25:23;15.70;1.00
3478;DHT22;37937;61.490;23.506;2023-05-07T13:27:48;15.80;1.00
3478;DHT22;37937;61.490;23.506;2023-05-07T13:30:14;15.20;1.00
3478;DHT22;37937;61.490;23.506;2023-05-07T13:32:40;14.80;1.00
3478;DHT22;37937;61.490;23.506;2023-05-07T13:35:06;15.00;1.00
3478;DHT22;37937;61.490;23.506;2023-05-07T13:37:32;14.70;1.00
3478;DHT22;37937;61.490;23.506;2023-05-07T13:39:57;15.00;1.00
3478;DHT22;37937;61.490;23.506;2023-05-07T13:42:23;14.70;1.00
3478;DHT22;37937;61.490;23.506;2023-05-07T13:44:48;15.10;1.00
3478;DHT22;37937;61.490;23.506;2023-05-07T13:47:14;15.00;1.00
3478;DHT22;37937;61.490;23.506;2023-05-07T13:49:40;15.00;1.00
3478;DHT22;37937;61.490;23.506;2023-05-07T13:52:05;15.10;1.00
3478;DHT22;37937;61.490;23.506;2023-05-07T13:54:31;15.00;1.00
3478;DHT22;37937;61.490;23.506;2023-05-07T13:56:56;15.10;1.00
3478;DHT22;37937;61.490;23.506;2023-05-07T13:59:22;15.00;1.00
3478;DHT22;37937;61.490;23.506;2023-05-07T14:01:48;15.00;1.00
3478;DHT22;37937;61.490;23.506;2023-05-07T14:04:14;14.90;1.00
3478;DHT22;37937;61.490;23.506;2023-05-07T14:06:40;15.10;1.00
3478;DHT22;37937;61.490;23.506;2023-05-07T14:09:06;15.00;1.00
3478;DHT22;37937;61.490;23.506;2023-05-07T14:11:32;15.20;1.00
3478;DHT22;37937;61.490;23.506;2023-05-07T14:13:57;15.30;1.00
3478;DHT22;37937;61.490;23.506;2023-05-07T14:16:23;14.80;1.00
3478;DHT22;37937;61.490;23.506;2023-05-07T14:18:49;15.20;1.00
3478;DHT22;37937;61.490;23.506;2023-05-07T14:21:15;15.10;1.00
3478;DHT22;37937;61.490;23.506;2023-05-07T14:23:40;14.80;1.00
3478;DHT22;37937;61.490;23.506;2023-05-07T14:26:06;14.30;1.00
3478;DHT22;37937;61.490;23.506;2023-05-07T14:28:31;14.00;1.00
3478;DHT22;37937;61.490;23.506;2023-05-07T14:30:57;14.10;1.00
3478;DHT22;37937;61.490;23.506;2023-05-07T14:33:23;14.00;1.00
3478;DHT22;37937;61.490;23.506;2023-05-07T14:35:48;14.20;1.00
3478;DHT22;37937;61.490;23.506;2023-05-07T14:38:15;14.10;1.00
3478;DHT22;37937;61.490;23.506;2023-05-07T14:40:41;13.90;1.00
3478;DHT22;37937;61.490;23.506;2023-05-07T14:43:06;13.80;1.00
3478;DHT22;37937;61.490;23.506;2023-05-07T14:45:32;13.70;1.00
3478;DHT22;37937;61.490;23.506;2023-05-07T14:47:58;13.70;1.00
3478;DHT22;37937;61.490;23.506;2023-05-07T14:50:24;13.70;1.00
3478;DHT22;37937;61.490;23.506;2023-05-07T14:52:49;13.80;1.00
3478;DHT22;37937;61.490;23.506;2023-05-07T14:55:15;13.70;1.00
3478;DHT22;37937;61.490;23.506;2023-05-07T14:57:41;13.40;1.00
3478;DHT22;37937;61.490;23.506;2023-05-07T15:00:06;13.50;1.00
3478;DHT22;37937;61.490;23.506;2023-05-07T15:02:33;13.40;1.00
3478;DHT22;37937;61.490;23.506;2023-05-07T15:04:59;13.30;1.00
3478;DHT22;37937;61.490;23.506;2023-05-07T15:07:25;13.60;1.00
3478;DHT22;37937;61.490;23.506;2023-05-07T15:09:51;13.40;1.00
3478;DHT22;37937;61.490;23.506;2023-05-07T15:12:17;13.50;1.00
3478;DHT22;37937;61.490;23.506;2023-05-07T15:14:42;13.40;1.00
3478;DHT22;37937;61.490;23.506;2023-05-07T15:17:08;13.30;1.00
3478;DHT22;37937;61.490;23.506;2023-05-07T15:19:33;13.40;1.00
3478;DHT22;37937;61.490;23.506;2023-05-07T15:22:02;13.40;1.00
3478;DHT22;37937;61.490;23.506;2023-05-07T15:24:31;13.60;1.00
3478;DHT22;37937;61.490;23.506;2023-05-07T15:26:57;13.50;1.00
3478;DHT22;37937;61.490;23.506;2023-05-07T15:29:26;13.50;1.00
3478;DHT22;37937;61.490;23.506;2023-05-07T15:31:51;13.50;1.00
3478;DHT22;37937;61.490;23.506;2023-05-07T15:34:17;13.40;1.00
3478;DHT22;37937;61.490;23.506;2023-05-07T15:36:43;13.30;1.00
3478;DHT22;37937;61.490;23.506;2023-05-07T15:39:09;13.30;1.00
3478;DHT22;37937;61.490;23.506;2023-05-07T15:41:35;13.30;1.00
3478;DHT22;37937;61.490;23.506;2023-05-07T15:44:02;13.40;1.00
3478;DHT22;37937;61.490;23.506;2023-05-07T15:46:28;13.20;1.00
3478;DHT22;37937;61.490;23.506;2023-05-07T15:48:54;13.10;1.00
3478;DHT22;37937;61.490;23.506;2023-05-07T15:51:20;13.10;1.00
3478;DHT22;37937;61.490;23.506;2023-05-07T15:53:47;13.10;1.00